sensor_id;sensor_type;location;lat;lon;timestamp;temperature;humidity
37281;DHT22;23169;41.804;12.596;2023-06-14T00:00:38;18.60;99.90
37281;DHT22;23169;41.804;12.596;2023-06-14T00:03:10;18.60;99.90
37281;DHT22;23169;41.804;12.596;2023-06-14T00:05:39;18.60;99.90
37281;DHT22;23169;41.804;12.596;2023-06-14T00:08:10;18.60;99.90
37281;DHT22;23169;41.804;12.596;2023-06-14T00:10:38;18.50;99.90
37281;DHT22;23169;41.804;12.596;2023-06-14T00:13:08;18.40;99.90
37281;DHT22;23169;41.804;12.596;2023-06-14T00:15:36;18.40;99.90
37281;DHT22;23169;41.804;12.596;2023-06-14T00:18:05;18.40;99.90
37281;DHT22;23169;41.804;12.596;2023-06-14T00:20:33;18.30;99.90
37281;DHT22;23169;41.804;12.596;2023-06-14T00:23:00;18.30;99.90
37281;DHT22;23169;41.804;12.596;2023-06-14T00:25:28;18.30;99.90
37281;DHT22;23169;41.804;12.596;2023-06-14T00:27:56;18.30;99.90
37281;DHT22;23169;41.804;12.596;2023-06-14T00:30:24;18.30;99.90
37281;DHT22;23169;41.804;12.596;2023-06-14T00:32:55;18.40;99.90
37281;DHT22;23169;41.804;12.596;2023-06-14T00:35:23;18.40;99.90
37281;DHT22;23169;41.804;12.596;2023-06-14T00:37:53;18.40;99.90
37281;DHT22;23169;41.804;12.596;2023-06-14T00:40:22;18.40;99.90
37281;DHT22;23169;41.804;12.596;2023-06-14T00:42:52;18.40;99.90
37281;DHT22;23169;41.804;12.596;2023-06-14T00:45:20;18.40;99.90
37281;DHT22;23169;41.804;12.596;2023-06-14T00:47:47;18.50;99.90
37281;DHT22;23169;41.804;12.596;2023-06-14T00:50:18;18.50;99.90
37281;DHT22;23169;41.804;12.596;2023-06-14T00:52:46;18.50;99.90
37281;DHT22;23169;41.804;12.596;2023-06-14T00:55:13;18.60;99.90
37281;DHT22;23169;41.804;12.596;2023-06-14T00:57:41;18.60;99.90
37281;DHT22;23169;41.804;12.596;2023-06-14T01:00:09;18.60;99.90
37281;DHT22;23169;41.804;12.596;2023-06-14T01:02:37;18.60;99.90
37281;DHT22;23169;41.804;12.596;2023-06-14T01:05:07;18.60;99.90
37281;DHT22;23169;41.804;12.596;2023-06-14T01:12:57;18.40;99.90
37281;DHT22;23169;41.804;12.596;2023-06-14T01:15:25;18.40;99.90
37281;DHT22;23169;41.804;12.596;2023-06-14T01:17:54;18.40;99.90
37281;DHT22;23169;41.804;12.596;2023-06-14T01:20:27;18.30;1.00
37281;DHT22;23169;41.804;12.596;2023-06-14T01:22:55;18.30;1.00
37281;DHT22;23169;41.804;12.596;2023-06-14T01:25:23;18.30;1.00
37281;DHT22;23169;41.804;12.596;2023-06-14T01:28:08;18.30;1.00
37281;DHT22;23169;41.804;12.596;2023-06-14T01:30:40;18.30;1.00
37281;DHT22;23169;41.804;12.596;2023-06-14T01:33:17;18.30;1.00
37281;DHT22;23169;41.804;12.596;2023-06-14T01:35:50;18.30;1.00
37281;DHT22;23169;41.804;12.596;2023-06-14T01:38:19;18.30;1.00
37281;DHT22;23169;41.804;12.596;2023-06-14T01:40:47;18.30;1.00
37281;DHT22;23169;41.804;12.596;2023-06-14T01:43:15;18.40;1.00
37281;DHT22;23169;41.804;12.596;2023-06-14T01:45:44;18.40;1.00
37281;DHT22;23169;41.804;12.596;2023-06-14T01:48:13;18.40;1.00
37281;DHT22;23169;41.804;12.596;2023-06-14T01:50:40;18.40;1.00
37281;DHT22;23169;41.804;12.596;2023-06-14T01:53:08;18.40;1.00
37281;DHT22;23169;41.804;12.596;2023-06-14T01:55:36;18.40;1.00
37281;DHT22;23169;41.804;12.596;2023-06-14T01:58:05;18.40;1.00
37281;DHT22;23169;41.804;12.596;2023-06-14T02:00:33;18.40;1.00
37281;DHT22;23169;41.804;12.596;2023-06-14T02:03:01;18.40;1.00
37281;DHT22;23169;41.804;12.596;2023-06-14T02:05:28;18.40;1.00
37281;DHT22;23169;41.804;12.596;2023-06-14T02:07:56;18.40;1.00
37281;DHT22;23169;41.804;12.596;2023-06-14T02:10:23;18.40;1.00
37281;DHT22;23169;41.804;12.596;2023-06-14T02:12:51;18.40;1.00
37281;DHT22;23169;41.804;12.596;2023-06-14T02:15:18;18.40;1.00
37281;DHT22;23169;41.804;12.596;2023-06-14T02:17:47;18.30;99.90
37281;DHT22;23169;41.804;12.596;2023-06-14T02:20:15;18.30;1.00
37281;DHT22;23169;41.804;12.596;2023-06-14T02:22:42;18.40;1.00
37281;DHT22;23169;41.804;12.596;2023-06-14T02:25:10;18.40;99.90
37281;DHT22;23169;41.804;12.596;2023-06-14T02:27:38;18.40;99.90
37281;DHT22;23169;41.804;12.596;2023-06-14T02:30:06;18.30;99.90
37281;DHT22;23169;41.804;12.596;2023-06-14T02:32:33;18.40;99.90
37281;DHT22;23169;41.804;12.596;2023-06-14T02:35:03;18.40;99.90
37281;DHT22;23169;41.804;12.596;2023-06-14T02:37:34;18.40;99.90
37281;DHT22;23169;41.804;12.596;2023-06-14T02:40:02;18.50;99.90
37281;DHT22;23169;41.804;12.596;2023-06-14T02:42:31;18.50;99.90
37281;DHT22;23169;41.804;12.596;2023-06-14T02:44:58;18.40;99.90
37281;DHT22;23169;41.804;12.596;2023-06-14T02:47:27;18.40;99.90
37281;DHT22;23169;41.804;12.596;2023-06-14T02:49:55;18.40;99.90
37281;DHT22;23169;41.804;12.596;2023-06-14T02:52:22;18.50;99.90
37281;DHT22;23169;41.804;12.596;2023-06-14T02:54:52;18.50;99.90
37281;DHT22;23169;41.804;12.596;2023-06-14T02:57:21;18.50;99.90
37281;DHT22;23169;41.804;12.596;2023-06-14T02:59:49;18.50;99.90
37281;DHT22;23169;41.804;12.596;2023-06-14T03:02:19;18.40;99.90
37281;DHT22;23169;41.804;12.596;2023-06-14T03:04:47;18.40;99.90
37281;DHT22;23169;41.804;12.596;2023-06-14T03:07:14;18.30;99.90
37281;DHT22;23169;41.804;12.596;2023-06-14T03:09:48;18.30;99.90
37281;DHT22;23169;41.804;12.596;2023-06-14T03:12:15;18.30;99.90
37281;DHT22;23169;41.804;12.596;2023-06-14T03:14:43;18.30;99.90
37281;DHT22;23169;41.804;12.596;2023-06-14T03:17:25;18.20;99.90
37281;DHT22;23169;41.804;12.596;2023-06-14T03:19:56;18.30;99.90
37281;DHT22;23169;41.804;12.596;2023-06-14T03:22:24;18.30;99.90
37281;DHT22;23169;41.804;12.596;2023-06-14T03:24:53;18.20;99.90
37281;DHT22;23169;41.804;12.596;2023-06-14T03:27:21;18.10;99.90
37281;DHT22;23169;41.804;12.596;2023-06-14T03:30:07;18.10;99.90
37281;DHT22;23169;41.804;12.596;2023-06-14T03:32:53;18.10;99.90
37281;DHT22;23169;41.804;12.596;2023-06-14T03:35:41;18.10;99.90
37281;DHT22;23169;41.804;12.596;2023-06-14T03:38:27;18.10;99.90
37281;DHT22;23169;41.804;12.596;2023-06-14T03:41:13;18.10;99.90
37281;DHT22;23169;41.804;12.596;2023-06-14T03:43:59;18.10;99.90
37281;DHT22;23169;41.804;12.596;2023-06-14T03:46:45;18.20;99.90
37281;DHT22;23169;41.804;12.596;2023-06-14T03:49:14;18.20;99.90
37281;DHT22;23169;41.804;12.596;2023-06-14T03:51:44;18.20;99.90
37281;DHT22;23169;41.804;12.596;2023-06-14T03:54:24;18.30;99.90
37281;DHT22;23169;41.804;12.596;2023-06-14T03:56:53;18.40;99.90
37281;DHT22;23169;41.804;12.596;2023-06-14T03:59:24;18.40;99.90
37281;DHT22;23169;41.804;12.596;2023-06-14T04:01:54;18.50;99.90
37281;DHT22;23169;41.804;12.596;2023-06-14T04:04:22;18.60;99.90
37281;DHT22;23169;41.804;12.596;2023-06-14T04:06:56;18.60;99.90
37281;DHT22;23169;41.804;12.596;2023-06-14T04:09:25;18.70;99.90
37281;DHT22;23169;41.804;12.596;2023-06-14T04:11:55;18.70;99.90
37281;DHT22;23169;41.804;12.596;2023-06-14T04:14:23;18.80;99.90
37281;DHT22;23169;41.804;12.596;2023-06-14T04:16:50;18.80;99.90
37281;DHT22;23169;41.804;12.596;2023-06-14T04:19:18;18.80;99.90
37281;DHT22;23169;41.804;12.596;2023-06-14T04:21:45;18.90;99.90
37281;DHT22;23169;41.804;12.596;2023-06-14T04:24:13;18.90;99.90
37281;DHT22;23169;41.804;12.596;2023-06-14T04:26:41;18.90;99.90
37281;DHT22;23169;41.804;12.596;2023-06-14T04:29:12;18.80;99.90
37281;DHT22;23169;41.804;12.596;2023-06-14T04:31:43;18.80;99.90
37281;DHT22;23169;41.804;12.596;2023-06-14T04:34:12;18.80;99.90
37281;DHT22;23169;41.804;12.596;2023-06-14T04:36:43;18.90;99.90
37281;DHT22;23169;41.804;12.596;2023-06-14T04:39:16;18.90;99.90
37281;DHT22;23169;41.804;12.596;2023-06-14T04:41:45;18.90;99.90
37281;DHT22;23169;41.804;12.596;2023-06-14T04:44:14;18.90;99.90
37281;DHT22;23169;41.804;12.596;2023-06-14T04:46:44;18.90;99.90
37281;DHT22;23169;41.804;12.596;2023-06-14T04:49:13;18.90;99.90
37281;DHT22;23169;41.804;12.596;2023-06-14T04:51:45;19.00;99.90
37281;DHT22;23169;41.804;12.596;2023-06-14T04:54:14;19.10;99.90
37281;DHT22;23169;41.804;12.596;2023-06-14T04:56:46;19.20;99.90
37281;DHT22;23169;41.804;12.596;2023-06-14T04:59:13;19.30;99.90
37281;DHT22;23169;41.804;12.596;2023-06-14T05:01:42;19.40;99.90
37281;DHT22;23169;41.804;12.596;2023-06-14T05:04:15;19.40;99.90
37281;DHT22;23169;41.804;12.596;2023-06-14T05:06:43;19.50;99.90
37281;DHT22;23169;41.804;12.596;2023-06-14T05:09:15;19.60;99.90
37281;DHT22;23169;41.804;12.596;2023-06-14T05:11:46;19.70;99.90
37281;DHT22;23169;41.804;12.596;2023-06-14T05:14:14;18.00;99.90
37281;DHT22;23169;41.804;12.596;2023-06-14T05:16:42;19.90;99.90
37281;DHT22;23169;41.804;12.596;2023-06-14T05:19:10;20.00;99.90
37281;DHT22;23169;41.804;12.596;2023-06-14T05:21:37;20.10;99.90
37281;DHT22;23169;41.804;12.596;2023-06-14T05:24:05;20.10;99.90
37281;DHT22;23169;41.804;12.596;2023-06-14T05:26:32;20.20;99.90
37281;DHT22;23169;41.804;12.596;2023-06-14T05:29:00;20.20;99.90
37281;DHT22;23169;41.804;12.596;2023-06-14T05:31:28;20.20;99.90
37281;DHT22;23169;41.804;12.596;2023-06-14T05:33:56;20.20;99.90
37281;DHT22;23169;41.804;12.596;2023-06-14T05:36:23;20.20;99.90
37281;DHT22;23169;41.804;12.596;2023-06-14T05:38:51;20.20;99.90
37281;DHT22;23169;41.804;12.596;2023-06-14T05:41:25;20.30;99.90
37281;DHT22;23169;41.804;12.596;2023-06-14T05:43:56;20.30;99.90
37281;DHT22;23169;41.804;12.596;2023-06-14T05:46:23;20.40;99.90
37281;DHT22;23169;41.804;12.596;2023-06-14T05:48:52;20.40;99.90
37281;DHT22;23169;41.804;12.596;2023-06-14T05:51:20;20.50;99.90
37281;DHT22;23169;41.804;12.596;2023-06-14T05:53:49;20.60;99.90
37281;DHT22;23169;41.804;12.596;2023-06-14T05:56:17;20.70;99.90
37281;DHT22;23169;41.804;12.596;2023-06-14T05:58:47;20.80;99.90
37281;DHT22;23169;41.804;12.596;2023-06-14T06:01:15;20.80;99.90
37281;DHT22;23169;41.804;12.596;2023-06-14T06:03:43;20.90;99.90
37281;DHT22;23169;41.804;12.596;2023-06-14T06:06:13;20.90;99.90
37281;DHT22;23169;41.804;12.596;2023-06-14T06:08:41;21.00;99.90
37281;DHT22;23169;41.804;12.596;2023-06-14T06:11:08;21.10;99.90
37281;DHT22;23169;41.804;12.596;2023-06-14T06:13:36;21.20;99.90
37281;DHT22;23169;41.804;12.596;2023-06-14T06:16:03;21.20;99.90
37281;DHT22;23169;41.804;12.596;2023-06-14T06:18:31;21.30;99.90
37281;DHT22;23169;41.804;12.596;2023-06-14T06:20:59;21.30;99.90
37281;DHT22;23169;41.804;12.596;2023-06-14T06:23:27;21.30;99.90
37281;DHT22;23169;41.804;12.596;2023-06-14T06:25:55;21.40;99.90
37281;DHT22;23169;41.804;12.596;2023-06-14T06:28:22;21.40;99.90
37281;DHT22;23169;41.804;12.596;2023-06-14T06:30:49;21.50;99.90
37281;DHT22;23169;41.804;12.596;2023-06-14T06:33:17;21.50;99.90
37281;DHT22;23169;41.804;12.596;2023-06-14T06:35:45;21.60;99.90
37281;DHT22;23169;41.804;12.596;2023-06-14T06:38:13;21.60;99.90
37281;DHT22;23169;41.804;12.596;2023-06-14T06:40:41;21.70;99.90
37281;DHT22;23169;41.804;12.596;2023-06-14T06:43:08;21.70;99.90
37281;DHT22;23169;41.804;12.596;2023-06-14T06:45:36;21.80;99.90
37281;DHT22;23169;41.804;12.596;2023-06-14T06:48:04;21.90;99.90
37281;DHT22;23169;41.804;12.596;2023-06-14T06:50:31;21.90;99.90
37281;DHT22;23169;41.804;12.596;2023-06-14T06:53:01;22.00;99.90
37281;DHT22;23169;41.804;12.596;2023-06-14T06:55:29;22.10;99.90
37281;DHT22;23169;41.804;12.596;2023-06-14T06:57:57;22.10;99.90
37281;DHT22;23169;41.804;12.596;2023-06-14T07:00:25;22.20;99.90
37281;DHT22;23169;41.804;12.596;2023-06-14T07:02:52;22.30;99.90
37281;DHT22;23169;41.804;12.596;2023-06-14T07:05:22;23.00;96.90
37281;DHT22;23169;41.804;12.596;2023-06-14T07:07:50;22.40;96.70
37281;DHT22;23169;41.804;12.596;2023-06-14T07:10:17;22.50;96.40
37281;DHT22;23169;41.804;12.596;2023-06-14T07:12:45;22.60;96.60
37281;DHT22;23169;41.804;12.596;2023-06-14T07:15:13;22.70;93.90
37281;DHT22;23169;41.804;12.596;2023-06-14T07:17:40;22.80;95.50
37281;DHT22;23169;41.804;12.596;2023-06-14T07:20:08;22.90;89.20
37281;DHT22;23169;41.804;12.596;2023-06-14T07:22:40;23.00;88.00
37281;DHT22;23169;41.804;12.596;2023-06-14T07:25:08;23.10;90.20
37281;DHT22;23169;41.804;12.596;2023-06-14T07:27:36;23.20;85.60
37281;DHT22;23169;41.804;12.596;2023-06-14T07:30:04;23.30;85.90
37281;DHT22;23169;41.804;12.596;2023-06-14T07:32:32;23.40;74.70
37281;DHT22;23169;41.804;12.596;2023-06-14T07:35:00;23.50;73.70
37281;DHT22;23169;41.804;12.596;2023-06-14T07:37:27;23.60;62.70
37281;DHT22;23169;41.804;12.596;2023-06-14T07:39:55;23.70;67.90
37281;DHT22;23169;41.804;12.596;2023-06-14T07:42:22;23.80;59.60
37281;DHT22;23169;41.804;12.596;2023-06-14T07:44:50;24.00;61.30
37281;DHT22;23169;41.804;12.596;2023-06-14T07:47:19;24.10;55.50
37281;DHT22;23169;41.804;12.596;2023-06-14T07:49:47;24.20;50.60
37281;DHT22;23169;41.804;12.596;2023-06-14T07:52:14;24.20;50.70
37281;DHT22;23169;41.804;12.596;2023-06-14T07:54:42;24.20;38.90
37281;DHT22;23169;41.804;12.596;2023-06-14T07:57:09;24.10;34.00
37281;DHT22;23169;41.804;12.596;2023-06-14T07:59:37;24.20;37.60
37281;DHT22;23169;41.804;12.596;2023-06-14T08:02:04;24.30;37.60
37281;DHT22;23169;41.804;12.596;2023-06-14T08:04:33;24.30;30.40
37281;DHT22;23169;41.804;12.596;2023-06-14T08:07:01;24.30;28.60
37281;DHT22;23169;41.804;12.596;2023-06-14T08:09:29;24.30;29.50
37281;DHT22;23169;41.804;12.596;2023-06-14T08:11:57;24.40;29.90
37281;DHT22;23169;41.804;12.596;2023-06-14T08:14:24;24.40;27.00
37281;DHT22;23169;41.804;12.596;2023-06-14T08:16:52;24.40;26.20
37281;DHT22;23169;41.804;12.596;2023-06-14T08:19:19;24.50;27.80
37281;DHT22;23169;41.804;12.596;2023-06-14T08:21:47;24.60;27.30
37281;DHT22;23169;41.804;12.596;2023-06-14T08:24:14;24.70;25.40
37281;DHT22;23169;41.804;12.596;2023-06-14T08:26:42;24.90;22.40
37281;DHT22;23169;41.804;12.596;2023-06-14T08:29:12;24.90;19.20
37281;DHT22;23169;41.804;12.596;2023-06-14T08:31:40;24.90;16.20
37281;DHT22;23169;41.804;12.596;2023-06-14T08:34:08;24.90;13.40
37281;DHT22;23169;41.804;12.596;2023-06-14T08:36:37;24.90;15.40
37281;DHT22;23169;41.804;12.596;2023-06-14T08:39:05;25.10;15.30
37281;DHT22;23169;41.804;12.596;2023-06-14T08:41:33;25.20;12.40
37281;DHT22;23169;41.804;12.596;2023-06-14T08:44:01;25.40;10.70
37281;DHT22;23169;41.804;12.596;2023-06-14T08:46:29;25.70;9.00
37281;DHT22;23169;41.804;12.596;2023-06-14T08:49:07;25.50;4.10
37281;DHT22;23169;41.804;12.596;2023-06-14T08:51:36;25.60;5.20
37281;DHT22;23169;41.804;12.596;2023-06-14T08:54:04;25.70;4.80
37281;DHT22;23169;41.804;12.596;2023-06-14T08:56:32;25.90;3.40
37281;DHT22;23169;41.804;12.596;2023-06-14T08:59:01;26.10;1.80
37281;DHT22;23169;41.804;12.596;2023-06-14T09:01:33;26.40;1.00
37281;DHT22;23169;41.804;12.596;2023-06-14T09:04:01;26.40;1.00
37281;DHT22;23169;41.804;12.596;2023-06-14T09:06:29;26.70;1.00
37281;DHT22;23169;41.804;12.596;2023-06-14T09:08:57;27.10;1.00
37281;DHT22;23169;41.804;12.596;2023-06-14T09:11:24;27.40;1.00
37281;DHT22;23169;41.804;12.596;2023-06-14T09:13:53;27.00;1.00
37281;DHT22;23169;41.804;12.596;2023-06-14T09:16:23;26.60;1.00
37281;DHT22;23169;41.804;12.596;2023-06-14T09:18:52;26.40;1.00
37281;DHT22;23169;41.804;12.596;2023-06-14T09:21:20;26.10;1.00
37281;DHT22;23169;41.804;12.596;2023-06-14T09:23:48;25.90;1.00
37281;DHT22;23169;41.804;12.596;2023-06-14T09:26:17;25.70;1.00
37281;DHT22;23169;41.804;12.596;2023-06-14T09:28:46;25.70;1.00
37281;DHT22;23169;41.804;12.596;2023-06-14T09:31:14;25.70;1.00
37281;DHT22;23169;41.804;12.596;2023-06-14T09:33:42;25.60;1.00
37281;DHT22;23169;41.804;12.596;2023-06-14T09:36:15;25.50;1.00
37281;DHT22;23169;41.804;12.596;2023-06-14T09:38:52;25.20;1.00
37281;DHT22;23169;41.804;12.596;2023-06-14T09:41:34;25.40;1.00
37281;DHT22;23169;41.804;12.596;2023-06-14T09:44:02;25.40;1.00
37281;DHT22;23169;41.804;12.596;2023-06-14T09:46:31;25.70;1.00
37281;DHT22;23169;41.804;12.596;2023-06-14T09:48:59;25.60;1.00
37281;DHT22;23169;41.804;12.596;2023-06-14T09:51:27;25.40;1.00
37281;DHT22;23169;41.804;12.596;2023-06-14T09:53:55;25.30;1.00
37281;DHT22;23169;41.804;12.596;2023-06-14T09:56:28;25.40;1.00
37281;DHT22;23169;41.804;12.596;2023-06-14T09:58:57;25.70;1.00
37281;DHT22;23169;41.804;12.596;2023-06-14T10:01:25;26.10;1.00
37281;DHT22;23169;41.804;12.596;2023-06-14T10:03:55;26.40;1.00
37281;DHT22;23169;41.804;12.596;2023-06-14T10:06:23;26.80;1.00
37281;DHT22;23169;41.804;12.596;2023-06-14T10:08:56;27.10;1.00
37281;DHT22;23169;41.804;12.596;2023-06-14T10:11:23;27.20;1.00
37281;DHT22;23169;41.804;12.596;2023-06-14T10:13:52;27.30;1.00
37281;DHT22;23169;41.804;12.596;2023-06-14T10:19:17;27.20;1.00
37281;DHT22;23169;41.804;12.596;2023-06-14T10:21:56;27.30;1.00
37281;DHT22;23169;41.804;12.596;2023-06-14T10:24:27;26.90;1.00
37281;DHT22;23169;41.804;12.596;2023-06-14T10:26:57;26.80;1.00
37281;DHT22;23169;41.804;12.596;2023-06-14T10:29:24;26.20;1.00
37281;DHT22;23169;41.804;12.596;2023-06-14T10:31:56;25.70;1.00
37281;DHT22;23169;41.804;12.596;2023-06-14T10:34:27;25.40;1.00
37281;DHT22;23169;41.804;12.596;2023-06-14T10:37:02;25.50;1.00
37281;DHT22;23169;41.804;12.596;2023-06-14T10:39:30;25.50;1.00
37281;DHT22;23169;41.804;12.596;2023-06-14T10:41:58;25.80;1.00
37281;DHT22;23169;41.804;12.596;2023-06-14T10:47:00;25.70;1.00
37281;DHT22;23169;41.804;12.596;2023-06-14T10:49:38;25.70;1.00
37281;DHT22;23169;41.804;12.596;2023-06-14T10:52:14;25.70;1.00
37281;DHT22;23169;41.804;12.596;2023-06-14T11:00:13;25.80;1.00
37281;DHT22;23169;41.804;12.596;2023-06-14T11:05:30;25.70;1.00
37281;DHT22;23169;41.804;12.596;2023-06-14T11:10:37;25.70;1.00
37281;DHT22;23169;41.804;12.596;2023-06-14T11:13:05;25.90;1.00
37281;DHT22;23169;41.804;12.596;2023-06-14T11:15:34;26.00;1.00
37281;DHT22;23169;41.804;12.596;2023-06-14T11:18:03;25.90;1.00
37281;DHT22;23169;41.804;12.596;2023-06-14T11:20:33;25.70;1.00
37281;DHT22;23169;41.804;12.596;2023-06-14T11:23:01;25.50;1.00
37281;DHT22;23169;41.804;12.596;2023-06-14T11:25:28;25.40;1.00
37281;DHT22;23169;41.804;12.596;2023-06-14T11:27:56;25.00;1.00
37281;DHT22;23169;41.804;12.596;2023-06-14T11:30:24;24.90;1.00
37281;DHT22;23169;41.804;12.596;2023-06-14T11:32:53;24.80;1.00
37281;DHT22;23169;41.804;12.596;2023-06-14T11:35:24;24.50;1.00
37281;DHT22;23169;41.804;12.596;2023-06-14T11:37:55;24.60;1.00
37281;DHT22;23169;41.804;12.596;2023-06-14T11:40:24;24.50;1.00
37281;DHT22;23169;41.804;12.596;2023-06-14T11:43:01;24.50;1.00
37281;DHT22;23169;41.804;12.596;2023-06-14T11:45:30;24.40;1.00
37281;DHT22;23169;41.804;12.596;2023-06-14T11:47:58;24.40;1.00
37281;DHT22;23169;41.804;12.596;2023-06-14T11:50:25;24.70;1.00
37281;DHT22;23169;41.804;12.596;2023-06-14T11:52:56;24.80;1.00
37281;DHT22;23169;41.804;12.596;2023-06-14T11:55:27;25.00;1.00
37281;DHT22;23169;41.804;12.596;2023-06-14T11:57:54;25.30;1.00
37281;DHT22;23169;41.804;12.596;2023-06-14T12:00:25;25.20;1.00
37281;DHT22;23169;41.804;12.596;2023-06-14T12:02:55;25.40;1.00
37281;DHT22;23169;41.804;12.596;2023-06-14T12:05:25;25.50;1.00
37281;DHT22;23169;41.804;12.596;2023-06-14T12:07:59;25.70;1.00
37281;DHT22;23169;41.804;12.596;2023-06-14T12:10:27;25.80;1.00
37281;DHT22;23169;41.804;12.596;2023-06-14T12:12:58;25.80;1.00
37281;DHT22;23169;41.804;12.596;2023-06-14T12:15:29;25.80;1.00
37281;DHT22;23169;41.804;12.596;2023-06-14T12:17:59;25.90;1.00
37281;DHT22;23169;41.804;12.596;2023-06-14T12:20:29;26.20;1.00
37281;DHT22;23169;41.804;12.596;2023-06-14T12:22:58;26.10;1.00
37281;DHT22;23169;41.804;12.596;2023-06-14T12:25:35;26.20;1.00
37281;DHT22;23169;41.804;12.596;2023-06-14T12:28:06;26.00;1.00
37281;DHT22;23169;41.804;12.596;2023-06-14T12:30:34;25.80;1.00
37281;DHT22;23169;41.804;12.596;2023-06-14T12:33:05;25.80;1.00
37281;DHT22;23169;41.804;12.596;2023-06-14T12:35:35;25.60;1.00
37281;DHT22;23169;41.804;12.596;2023-06-14T12:38:03;25.70;1.00
37281;DHT22;23169;41.804;12.596;2023-06-14T12:40:31;26.00;1.00
37281;DHT22;23169;41.804;12.596;2023-06-14T12:42:59;26.00;1.00
37281;DHT22;23169;41.804;12.596;2023-06-14T12:45:27;25.50;1.00
37281;DHT22;23169;41.804;12.596;2023-06-14T12:47:55;25.20;1.00
37281;DHT22;23169;41.804;12.596;2023-06-14T12:50:23;25.40;1.00
37281;DHT22;23169;41.804;12.596;2023-06-14T12:52:50;25.10;1.00
37281;DHT22;23169;41.804;12.596;2023-06-14T12:55:17;24.90;1.00
37281;DHT22;23169;41.804;12.596;2023-06-14T12:57:46;25.00;1.00
37281;DHT22;23169;41.804;12.596;2023-06-14T13:00:16;25.40;1.00
37281;DHT22;23169;41.804;12.596;2023-06-14T13:02:44;25.30;1.00
37281;DHT22;23169;41.804;12.596;2023-06-14T13:05:12;25.50;1.00
37281;DHT22;23169;41.804;12.596;2023-06-14T13:07:42;25.40;1.00
37281;DHT22;23169;41.804;12.596;2023-06-14T13:10:10;25.30;1.00
37281;DHT22;23169;41.804;12.596;2023-06-14T13:12:37;25.10;1.00
37281;DHT22;23169;41.804;12.596;2023-06-14T13:15:05;25.00;1.00
37281;DHT22;23169;41.804;12.596;2023-06-14T13:17:33;25.00;1.00
37281;DHT22;23169;41.804;12.596;2023-06-14T13:20:05;25.00;1.00
37281;DHT22;23169;41.804;12.596;2023-06-14T13:22:34;25.10;1.00
37281;DHT22;23169;41.804;12.596;2023-06-14T13:25:03;24.60;1.00
37281;DHT22;23169;41.804;12.596;2023-06-14T13:27:31;24.40;1.00
37281;DHT22;23169;41.804;12.596;2023-06-14T13:29:58;24.10;1.00
37281;DHT22;23169;41.804;12.596;2023-06-14T13:32:26;23.40;1.00
37281;DHT22;23169;41.804;12.596;2023-06-14T13:34:54;23.10;1.00
37281;DHT22;23169;41.804;12.596;2023-06-14T13:37:21;22.80;1.00
37281;DHT22;23169;41.804;12.596;2023-06-14T13:39:49;22.70;1.00
37281;DHT22;23169;41.804;12.596;2023-06-14T13:42:19;22.70;1.00
37281;DHT22;23169;41.804;12.596;2023-06-14T13:44:46;22.70;11.00
37281;DHT22;23169;41.804;12.596;2023-06-14T13:47:14;22.40;18.80
37281;DHT22;23169;41.804;12.596;2023-06-14T13:49:41;22.20;24.80
37281;DHT22;23169;41.804;12.596;2023-06-14T13:52:09;22.60;32.50
37281;DHT22;23169;41.804;12.596;2023-06-14T13:54:39;22.70;35.00
37281;DHT22;23169;41.804;12.596;2023-06-14T13:57:07;22.90;25.80
37281;DHT22;23169;41.804;12.596;2023-06-14T13:59:37;23.10;23.60
37281;DHT22;23169;41.804;12.596;2023-06-14T14:02:04;23.20;15.40
37281;DHT22;23169;41.804;12.596;2023-06-14T14:04:33;23.20;12.00
37281;DHT22;23169;41.804;12.596;2023-06-14T14:07:02;23.20;9.30
37281;DHT22;23169;41.804;12.596;2023-06-14T14:09:30;23.10;10.00
37281;DHT22;23169;41.804;12.596;2023-06-14T14:11:58;23.20;9.50
37281;DHT22;23169;41.804;12.596;2023-06-14T14:14:27;23.40;9.50
37281;DHT22;23169;41.804;12.596;2023-06-14T14:16:54;23.80;6.60
37281;DHT22;23169;41.804;12.596;2023-06-14T14:19:22;24.10;3.70
37281;DHT22;23169;41.804;12.596;2023-06-14T14:21:50;24.50;2.60
37281;DHT22;23169;41.804;12.596;2023-06-14T14:24:17;24.90;1.00
37281;DHT22;23169;41.804;12.596;2023-06-14T14:26:44;25.00;1.00
37281;DHT22;23169;41.804;12.596;2023-06-14T14:29:14;25.10;1.00
37281;DHT22;23169;41.804;12.596;2023-06-14T14:31:42;25.10;1.00
37281;DHT22;23169;41.804;12.596;2023-06-14T14:34:10;25.10;1.00
37281;DHT22;23169;41.804;12.596;2023-06-14T14:36:38;25.10;1.00
37281;DHT22;23169;41.804;12.596;2023-06-14T14:39:11;24.80;1.00
37281;DHT22;23169;41.804;12.596;2023-06-14T14:41:39;24.60;5.30
37281;DHT22;23169;41.804;12.596;2023-06-14T14:44:07;24.40;1.00
37281;DHT22;23169;41.804;12.596;2023-06-14T14:46:34;23.90;1.00
37281;DHT22;23169;41.804;12.596;2023-06-14T14:49:02;23.80;2.90
37281;DHT22;23169;41.804;12.596;2023-06-14T14:51:33;23.90;4.70
37281;DHT22;23169;41.804;12.596;2023-06-14T14:54:00;23.80;5.70
37281;DHT22;23169;41.804;12.596;2023-06-14T14:56:29;23.70;4.70
37281;DHT22;23169;41.804;12.596;2023-06-14T14:58:59;23.70;4.50
37281;DHT22;23169;41.804;12.596;2023-06-14T15:01:27;23.70;5.00
37281;DHT22;23169;41.804;12.596;2023-06-14T15:03:55;23.50;6.20
37281;DHT22;23169;41.804;12.596;2023-06-14T15:06:23;23.50;5.50
37281;DHT22;23169;41.804;12.596;2023-06-14T15:08:51;23.60;5.30
37281;DHT22;23169;41.804;12.596;2023-06-14T15:11:19;23.50;5.40
37281;DHT22;23169;41.804;12.596;2023-06-14T15:13:47;23.50;5.90
37281;DHT22;23169;41.804;12.596;2023-06-14T15:16:16;23.60;6.50
37281;DHT22;23169;41.804;12.596;2023-06-14T15:18:43;23.70;7.70
37281;DHT22;23169;41.804;12.596;2023-06-14T15:21:11;23.90;6.40
37281;DHT22;23169;41.804;12.596;2023-06-14T15:23:39;23.90;5.90
37281;DHT22;23169;41.804;12.596;2023-06-14T15:26:07;24.00;5.50
37281;DHT22;23169;41.804;12.596;2023-06-14T15:28:35;24.00;3.60
37281;DHT22;23169;41.804;12.596;2023-06-14T15:31:03;24.10;3.70
37281;DHT22;23169;41.804;12.596;2023-06-14T15:33:30;24.20;1.80
37281;DHT22;23169;41.804;12.596;2023-06-14T15:35:58;24.40;1.40
37281;DHT22;23169;41.804;12.596;2023-06-14T15:38:26;24.60;1.00
37281;DHT22;23169;41.804;12.596;2023-06-14T15:40:53;24.60;1.00
37281;DHT22;23169;41.804;12.596;2023-06-14T15:43:21;24.60;1.00
37281;DHT22;23169;41.804;12.596;2023-06-14T15:45:50;24.50;1.00
37281;DHT22;23169;41.804;12.596;2023-06-14T15:48:18;24.40;1.00
37281;DHT22;23169;41.804;12.596;2023-06-14T15:50:45;24.30;1.00
37281;DHT22;23169;41.804;12.596;2023-06-14T15:53:13;24.30;1.00
37281;DHT22;23169;41.804;12.596;2023-06-14T15:55:41;24.30;1.00